Terminal Aerodrome Forecast
Issued by NWS

Home | Current Version | Previous Version | Text Only | Print | Product List | Glossary Off
Versions: 1 2 3 4 5 6 7 8 9 10 11 12 13 14 15 16 17 18 19 20 21 22 23 24 25 26 27 28 29 30 31 32 33 34 35 36

472
FTUS43 KGLD 240216 AAB
TAFMCK
TAF AMD
KMCK 240216Z 2402/2424 18026G37KT P6SM VCSH BKN100 WS020/18045KT
      TEMPO 2402/2403 5SM HZ BKN014
     FM240600 12013KT P6SM VCSH BKN100
     FM240800 06013KT P6SM VCSH BKN060
     FM241200 03018G30KT 6SM -RA BKN010
     FM241800 01020G32KT 6SM -RA BKN008
     FM242200 36022G32KT P6SM -RA OVC010=

USA.gov is the U.S. government's official web portal to all federal, state and local government web resources and services.